sensor_id;sensor_type;location;lat;lon;timestamp;temperature;humidity
45137;DHT22;30894;51.740;19.498;2023-04-24T00:02:24;7.20;59.10
45137;DHT22;30894;51.740;19.498;2023-04-24T00:05:48;7.30;59.10
45137;DHT22;30894;51.740;19.498;2023-04-24T00:09:39;7.40;59.10
45137;DHT22;30894;51.740;19.498;2023-04-24T00:12:47;7.40;59.20
45137;DHT22;30894;51.740;19.498;2023-04-24T00:15:42;7.40;59.30
45137;DHT22;30894;51.740;19.498;2023-04-24T00:18:47;7.50;59.20
45137;DHT22;30894;51.740;19.498;2023-04-24T00:24:38;7.50;59.20
45137;DHT22;30894;51.740;19.498;2023-04-24T00:27:41;7.50;59.20
45137;DHT22;30894;51.740;19.498;2023-04-24T00:30:49;7.50;59.30
45137;DHT22;30894;51.740;19.498;2023-04-24T00:36:32;7.60;59.30
45137;DHT22;30894;51.740;19.498;2023-04-24T00:39:56;7.60;59.90
45137;DHT22;30894;51.740;19.498;2023-04-24T00:43:34;7.60;59.30
45137;DHT22;30894;51.740;19.498;2023-04-24T00:46:41;7.60;59.30
45137;DHT22;30894;51.740;19.498;2023-04-24T00:53:21;7.80;59.30
45137;DHT22;30894;51.740;19.498;2023-04-24T00:56:38;7.90;59.30
45137;DHT22;30894;51.740;19.498;2023-04-24T01:08:23;8.30;59.20
45137;DHT22;30894;51.740;19.498;2023-04-24T01:11:13;8.40;59.10
45137;DHT22;30894;51.740;19.498;2023-04-24T01:14:00;8.40;59.00
45137;DHT22;30894;51.740;19.498;2023-04-24T01:16:52;8.50;59.10
45137;DHT22;30894;51.740;19.498;2023-04-24T01:19:58;8.50;59.00
45137;DHT22;30894;51.740;19.498;2023-04-24T01:23:08;8.60;59.10
45137;DHT22;30894;51.740;19.498;2023-04-24T01:25:54;8.70;59.00
45137;DHT22;30894;51.740;19.498;2023-04-24T01:29:15;8.60;59.00
45137;DHT22;30894;51.740;19.498;2023-04-24T01:34:53;8.80;58.80
45137;DHT22;30894;51.740;19.498;2023-04-24T01:38:10;8.90;58.90
45137;DHT22;30894;51.740;19.498;2023-04-24T01:41:10;9.00;58.90
45137;DHT22;30894;51.740;19.498;2023-04-24T01:44:10;9.10;58.80
45137;DHT22;30894;51.740;19.498;2023-04-24T01:47:40;9.10;58.80
45137;DHT22;30894;51.740;19.498;2023-04-24T01:53:53;9.10;58.70
45137;DHT22;30894;51.740;19.498;2023-04-24T01:56:43;9.10;58.90
45137;DHT22;30894;51.740;19.498;2023-04-24T01:59:35;9.10;59.00
45137;DHT22;30894;51.740;19.498;2023-04-24T02:02:46;9.00;59.20
45137;DHT22;30894;51.740;19.498;2023-04-24T02:08:46;8.90;59.40
45137;DHT22;30894;51.740;19.498;2023-04-24T02:11:46;8.80;59.80
45137;DHT22;30894;51.740;19.498;2023-04-24T02:14:51;8.80;59.70
45137;DHT22;30894;51.740;19.498;2023-04-24T02:20:30;8.60;60.00
45137;DHT22;30894;51.740;19.498;2023-04-24T02:32:31;8.20;60.80
45137;DHT22;30894;51.740;19.498;2023-04-24T02:38:25;8.10;61.20
45137;DHT22;30894;51.740;19.498;2023-04-24T02:41:20;8.10;61.30
45137;DHT22;30894;51.740;19.498;2023-04-24T02:44:26;8.00;61.30
45137;DHT22;30894;51.740;19.498;2023-04-24T02:47:00;8.00;61.40
45137;DHT22;30894;51.740;19.498;2023-04-24T02:50:15;8.10;61.40
45137;DHT22;30894;51.740;19.498;2023-04-24T02:53:13;8.20;61.30
45137;DHT22;30894;51.740;19.498;2023-04-24T02:58:52;8.40;61.20
45137;DHT22;30894;51.740;19.498;2023-04-24T03:02:26;8.50;61.20
45137;DHT22;30894;51.740;19.498;2023-04-24T03:05:24;8.60;61.10
45137;DHT22;30894;51.740;19.498;2023-04-24T03:08:18;8.60;61.00
45137;DHT22;30894;51.740;19.498;2023-04-24T03:11:13;8.60;60.90
45137;DHT22;30894;51.740;19.498;2023-04-24T03:17:38;8.70;61.00
45137;DHT22;30894;51.740;19.498;2023-04-24T03:20:42;8.70;61.00
45137;DHT22;30894;51.740;19.498;2023-04-24T03:23:18;8.80;60.90
45137;DHT22;30894;51.740;19.498;2023-04-24T03:26:11;8.80;60.80
45137;DHT22;30894;51.740;19.498;2023-04-24T03:29:21;8.90;60.80
45137;DHT22;30894;51.740;19.498;2023-04-24T03:32:43;8.90;60.80
45137;DHT22;30894;51.740;19.498;2023-04-24T03:39:38;8.90;60.80
45137;DHT22;30894;51.740;19.498;2023-04-24T03:42:39;8.90;60.90
45137;DHT22;30894;51.740;19.498;2023-04-24T03:45:34;8.90;61.00
45137;DHT22;30894;51.740;19.498;2023-04-24T03:48:30;8.80;61.20
45137;DHT22;30894;51.740;19.498;2023-04-24T03:51:20;8.80;61.40
45137;DHT22;30894;51.740;19.498;2023-04-24T03:54:21;8.90;61.50
45137;DHT22;30894;51.740;19.498;2023-04-24T03:57:11;8.90;61.60
45137;DHT22;30894;51.740;19.498;2023-04-24T04:03:16;9.10;61.50
45137;DHT22;30894;51.740;19.498;2023-04-24T04:06:34;9.30;61.30
45137;DHT22;30894;51.740;19.498;2023-04-24T04:09:55;9.50;61.30
45137;DHT22;30894;51.740;19.498;2023-04-24T04:13:12;9.60;61.00
45137;DHT22;30894;51.740;19.498;2023-04-24T04:16:11;9.70;60.90
45137;DHT22;30894;51.740;19.498;2023-04-24T04:19:13;9.80;60.80
45137;DHT22;30894;51.740;19.498;2023-04-24T04:22:10;9.90;60.80
45137;DHT22;30894;51.740;19.498;2023-04-24T04:25:19;9.90;60.70
45137;DHT22;30894;51.740;19.498;2023-04-24T04:45:10;12.50;57.80
45137;DHT22;30894;51.740;19.498;2023-04-24T04:48:04;13.00;57.10
45137;DHT22;30894;51.740;19.498;2023-04-24T04:50:52;13.50;56.40
45137;DHT22;30894;51.740;19.498;2023-04-24T04:53:36;13.90;55.90
45137;DHT22;30894;51.740;19.498;2023-04-24T04:56:55;14.30;55.30
45137;DHT22;30894;51.740;19.498;2023-04-24T04:59:57;14.70;54.90
45137;DHT22;30894;51.740;19.498;2023-04-24T05:02:55;15.10;54.60
45137;DHT22;30894;51.740;19.498;2023-04-24T05:05:49;15.50;54.40
45137;DHT22;30894;51.740;19.498;2023-04-24T05:09:18;15.90;54.10
45137;DHT22;30894;51.740;19.498;2023-04-24T05:12:15;16.40;53.80
45137;DHT22;30894;51.740;19.498;2023-04-24T05:15:09;16.80;54.00
45137;DHT22;30894;51.740;19.498;2023-04-24T05:24:12;17.90;52.30
45137;DHT22;30894;51.740;19.498;2023-04-24T05:27:30;18.10;52.10
45137;DHT22;30894;51.740;19.498;2023-04-24T05:30:43;18.10;52.30
45137;DHT22;30894;51.740;19.498;2023-04-24T05:33:29;18.20;52.40
45137;DHT22;30894;51.740;19.498;2023-04-24T05:37:30;18.30;52.40
45137;DHT22;30894;51.740;19.498;2023-04-24T05:40:31;18.40;52.50
45137;DHT22;30894;51.740;19.498;2023-04-24T05:43:18;18.50;52.50
45137;DHT22;30894;51.740;19.498;2023-04-24T05:48:38;19.10;51.80
45137;DHT22;30894;51.740;19.498;2023-04-24T05:51:43;19.50;51.60
45137;DHT22;30894;51.740;19.498;2023-04-24T05:55:00;20.00;51.10
45137;DHT22;30894;51.740;19.498;2023-04-24T06:01:15;21.30;49.70
45137;DHT22;30894;51.740;19.498;2023-04-24T06:04:15;21.90;49.10
45137;DHT22;30894;51.740;19.498;2023-04-24T06:09:31;22.50;48.50
45137;DHT22;30894;51.740;19.498;2023-04-24T06:12:37;22.60;48.60
45137;DHT22;30894;51.740;19.498;2023-04-24T06:15:54;22.80;48.50
45137;DHT22;30894;51.740;19.498;2023-04-24T06:19:23;23.10;48.20
45137;DHT22;30894;51.740;19.498;2023-04-24T06:22:11;23.60;47.90
45137;DHT22;30894;51.740;19.498;2023-04-24T06:25:16;23.90;47.60
45137;DHT22;30894;51.740;19.498;2023-04-24T06:28:05;24.20;47.40
45137;DHT22;30894;51.740;19.498;2023-04-24T06:31:32;24.60;47.30
45137;DHT22;30894;51.740;19.498;2023-04-24T06:34:36;24.80;47.00
45137;DHT22;30894;51.740;19.498;2023-04-24T06:38:16;25.00;46.90
45137;DHT22;30894;51.740;19.498;2023-04-24T06:41:34;25.20;46.70
45137;DHT22;30894;51.740;19.498;2023-04-24T06:47:39;25.30;46.70
45137;DHT22;30894;51.740;19.498;2023-04-24T06:50:33;25.20;46.80
45137;DHT22;30894;51.740;19.498;2023-04-24T06:53:49;24.90;47.00
45137;DHT22;30894;51.740;19.498;2023-04-24T06:57:20;24.60;47.40
45137;DHT22;30894;51.740;19.498;2023-04-24T07:00:18;24.20;47.80
45137;DHT22;30894;51.740;19.498;2023-04-24T07:03:32;24.00;48.20
45137;DHT22;30894;51.740;19.498;2023-04-24T07:06:49;23.80;48.30
45137;DHT22;30894;51.740;19.498;2023-04-24T07:12:44;23.80;48.50
45137;DHT22;30894;51.740;19.498;2023-04-24T07:15:50;23.90;48.40
45137;DHT22;30894;51.740;19.498;2023-04-24T07:18:46;24.00;48.50
45137;DHT22;30894;51.740;19.498;2023-04-24T07:22:25;24.20;48.10
45137;DHT22;30894;51.740;19.498;2023-04-24T07:25:44;24.80;47.80
45137;DHT22;30894;51.740;19.498;2023-04-24T07:28:33;25.60;47.00
45137;DHT22;30894;51.740;19.498;2023-04-24T07:31:29;26.40;46.20
45137;DHT22;30894;51.740;19.498;2023-04-24T07:34:20;27.10;45.50
45137;DHT22;30894;51.740;19.498;2023-04-24T07:37:33;27.70;44.90
45137;DHT22;30894;51.740;19.498;2023-04-24T07:40:30;28.30;44.40
45137;DHT22;30894;51.740;19.498;2023-04-24T07:43:29;28.80;43.90
45137;DHT22;30894;51.740;19.498;2023-04-24T07:46:42;29.20;43.50
45137;DHT22;30894;51.740;19.498;2023-04-24T07:52:32;29.90;42.90
45137;DHT22;30894;51.740;19.498;2023-04-24T07:55:34;30.10;42.80
45137;DHT22;30894;51.740;19.498;2023-04-24T07:58:47;30.40;42.70
45137;DHT22;30894;51.740;19.498;2023-04-24T08:07:39;30.60;42.50
45137;DHT22;30894;51.740;19.498;2023-04-24T08:10:46;30.90;42.40
45137;DHT22;30894;51.740;19.498;2023-04-24T08:13:44;31.10;42.20
45137;DHT22;30894;51.740;19.498;2023-04-24T08:23:37;31.00;42.10
45137;DHT22;30894;51.740;19.498;2023-04-24T08:26:29;31.10;42.10
45137;DHT22;30894;51.740;19.498;2023-04-24T09:04:10;33.10;40.30
45137;DHT22;30894;51.740;19.498;2023-04-24T09:06:59;33.30;40.20
45137;DHT22;30894;51.740;19.498;2023-04-24T09:10:14;33.60;39.90
45137;DHT22;30894;51.740;19.498;2023-04-24T09:13:10;33.70;39.90
45137;DHT22;30894;51.740;19.498;2023-04-24T09:16:10;33.40;39.90
45137;DHT22;30894;51.740;19.498;2023-04-24T09:19:19;33.30;40.00
45137;DHT22;30894;51.740;19.498;2023-04-24T09:22:07;33.20;40.10
45137;DHT22;30894;51.740;19.498;2023-04-24T09:25:12;33.60;39.80
45137;DHT22;30894;51.740;19.498;2023-04-24T09:30:53;33.30;40.00
45137;DHT22;30894;51.740;19.498;2023-04-24T09:34:09;33.10;40.10
45137;DHT22;30894;51.740;19.498;2023-04-24T09:36:48;33.00;40.10
45137;DHT22;30894;51.740;19.498;2023-04-24T09:40:16;33.10;40.10
45137;DHT22;30894;51.740;19.498;2023-04-24T09:43:33;32.70;40.30
45137;DHT22;30894;51.740;19.498;2023-04-24T09:46:20;32.80;40.40
45137;DHT22;30894;51.740;19.498;2023-04-24T09:49:43;33.40;40.00
45137;DHT22;30894;51.740;19.498;2023-04-24T09:52:59;34.00;39.30
45137;DHT22;30894;51.740;19.498;2023-04-24T09:55:58;34.70;39.00
45137;DHT22;30894;51.740;19.498;2023-04-24T10:19:37;35.70;37.30
45137;DHT22;30894;51.740;19.498;2023-04-24T10:22:20;35.90;37.20
45137;DHT22;30894;51.740;19.498;2023-04-24T10:25:10;36.40;37.00
45137;DHT22;30894;51.740;19.498;2023-04-24T10:28:08;36.30;36.80
45137;DHT22;30894;51.740;19.498;2023-04-24T10:31:29;35.90;36.70
45137;DHT22;30894;51.740;19.498;2023-04-24T10:34:34;35.60;36.80
45137;DHT22;30894;51.740;19.498;2023-04-24T10:37:30;35.30;36.80
45137;DHT22;30894;51.740;19.498;2023-04-24T10:40:39;34.50;37.30
45137;DHT22;30894;51.740;19.498;2023-04-24T11:56:57;33.50;36.70
45137;DHT22;30894;51.740;19.498;2023-04-24T12:00:54;33.30;36.70
45137;DHT22;30894;51.740;19.498;2023-04-24T12:03:39;33.00;36.80
45137;DHT22;30894;51.740;19.498;2023-04-24T12:06:26;32.40;36.90
45137;DHT22;30894;51.740;19.498;2023-04-24T12:12:45;30.30;38.40
45137;DHT22;30894;51.740;19.498;2023-04-24T12:15:40;29.40;38.90
45137;DHT22;30894;51.740;19.498;2023-04-24T12:18:54;28.60;40.20
45137;DHT22;30894;51.740;19.498;2023-04-24T12:35:32;31.10;37.90
45137;DHT22;30894;51.740;19.498;2023-04-24T12:38:52;31.40;37.60
45137;DHT22;30894;51.740;19.498;2023-04-24T12:45:05;30.60;37.80
45137;DHT22;30894;51.740;19.498;2023-04-24T12:47:57;29.70;38.60
45137;DHT22;30894;51.740;19.498;2023-04-24T13:09:12;30.10;37.30
45137;DHT22;30894;51.740;19.498;2023-04-24T13:28:48;26.50;39.70
45137;DHT22;30894;51.740;19.498;2023-04-24T13:34:43;25.50;40.50
45137;DHT22;30894;51.740;19.498;2023-04-24T13:37:39;25.30;40.70
45137;DHT22;30894;51.740;19.498;2023-04-24T13:40:32;25.30;40.70
45137;DHT22;30894;51.740;19.498;2023-04-24T13:43:45;25.10;40.90
45137;DHT22;30894;51.740;19.498;2023-04-24T13:47:06;24.80;41.00
45137;DHT22;30894;51.740;19.498;2023-04-24T13:50:07;24.80;41.10
45137;DHT22;30894;51.740;19.498;2023-04-24T13:55:45;26.80;39.90
45137;DHT22;30894;51.740;19.498;2023-04-24T13:58:38;27.30;39.30
45137;DHT22;30894;51.740;19.498;2023-04-24T14:01:32;27.70;38.90
45137;DHT22;30894;51.740;19.498;2023-04-24T14:04:27;28.00;38.70
45137;DHT22;30894;51.740;19.498;2023-04-24T14:07:37;27.90;38.70
45137;DHT22;30894;51.740;19.498;2023-04-24T14:10:23;27.80;38.90
45137;DHT22;30894;51.740;19.498;2023-04-24T14:16:31;28.00;39.00
45137;DHT22;30894;51.740;19.498;2023-04-24T14:19:42;28.30;38.90
45137;DHT22;30894;51.740;19.498;2023-04-24T14:22:50;28.30;38.80
45137;DHT22;30894;51.740;19.498;2023-04-24T14:45:51;24.20;42.30
45137;DHT22;30894;51.740;19.498;2023-04-24T14:49:00;23.90;42.60
45137;DHT22;30894;51.740;19.498;2023-04-24T14:52:13;23.70;42.80
45137;DHT22;30894;51.740;19.498;2023-04-24T14:55:08;23.50;43.00
45137;DHT22;30894;51.740;19.498;2023-04-24T14:58:33;23.20;43.30
45137;DHT22;30894;51.740;19.498;2023-04-24T15:01:35;23.00;43.50
45137;DHT22;30894;51.740;19.498;2023-04-24T15:04:35;22.70;43.80
45137;DHT22;30894;51.740;19.498;2023-04-24T15:18:32;21.60;45.20
45137;DHT22;30894;51.740;19.498;2023-04-24T15:56:28;19.60;47.90
45137;DHT22;30894;51.740;19.498;2023-04-24T15:59:37;19.40;48.20
45137;DHT22;30894;51.740;19.498;2023-04-24T16:02:28;19.20;48.50
45137;DHT22;30894;51.740;19.498;2023-04-24T16:05:24;18.90;48.80
45137;DHT22;30894;51.740;19.498;2023-04-24T16:11:06;18.50;49.50
45137;DHT22;30894;51.740;19.498;2023-04-24T16:13:53;18.40;49.80
45137;DHT22;30894;51.740;19.498;2023-04-24T16:16:42;18.20;50.10
45137;DHT22;30894;51.740;19.498;2023-04-24T16:19:27;18.00;50.20
45137;DHT22;30894;51.740;19.498;2023-04-24T16:22:21;17.90;50.40
45137;DHT22;30894;51.740;19.498;2023-04-24T16:25:02;17.80;50.70
45137;DHT22;30894;51.740;19.498;2023-04-24T16:30:33;17.50;51.00
45137;DHT22;30894;51.740;19.498;2023-04-24T16:33:34;17.40;51.20
45137;DHT22;30894;51.740;19.498;2023-04-24T16:36:23;17.30;51.50
45137;DHT22;30894;51.740;19.498;2023-04-24T16:39:11;17.10;51.70
45137;DHT22;30894;51.740;19.498;2023-04-24T16:42:15;17.00;52.00
45137;DHT22;30894;51.740;19.498;2023-04-24T16:45:14;16.90;52.30
45137;DHT22;30894;51.740;19.498;2023-04-24T16:48:21;16.80;52.50
45137;DHT22;30894;51.740;19.498;2023-04-24T16:51:12;16.70;52.90
45137;DHT22;30894;51.740;19.498;2023-04-24T16:54:10;16.50;53.00
45137;DHT22;30894;51.740;19.498;2023-04-24T16:57:10;16.40;53.20
45137;DHT22;30894;51.740;19.498;2023-04-24T17:00:26;16.30;53.40
45137;DHT22;30894;51.740;19.498;2023-04-24T17:03:19;16.10;53.40
45137;DHT22;30894;51.740;19.498;2023-04-24T17:07:05;16.00;53.60
45137;DHT22;30894;51.740;19.498;2023-04-24T17:15:24;15.70;54.10
45137;DHT22;30894;51.740;19.498;2023-04-24T17:18:21;15.60;54.30
45137;DHT22;30894;51.740;19.498;2023-04-24T17:21:25;15.40;54.50
45137;DHT22;30894;51.740;19.498;2023-04-24T17:24:03;15.30;54.70
45137;DHT22;30894;51.740;19.498;2023-04-24T17:26:48;15.20;54.90
45137;DHT22;30894;51.740;19.498;2023-04-24T17:29:41;15.10;55.00
45137;DHT22;30894;51.740;19.498;2023-04-24T17:32:36;15.00;55.20
45137;DHT22;30894;51.740;19.498;2023-04-24T17:35:33;14.90;55.50
45137;DHT22;30894;51.740;19.498;2023-04-24T17:38:23;14.80;55.50
45137;DHT22;30894;51.740;19.498;2023-04-24T17:41:24;14.70;55.60
45137;DHT22;30894;51.740;19.498;2023-04-24T17:44:15;14.60;55.80
45137;DHT22;30894;51.740;19.498;2023-04-24T17:47:03;14.60;55.90
45137;DHT22;30894;51.740;19.498;2023-04-24T17:49:51;14.50;56.00
45137;DHT22;30894;51.740;19.498;2023-04-24T17:52:43;14.40;56.10
45137;DHT22;30894;51.740;19.498;2023-04-24T17:55:20;14.40;56.10
45137;DHT22;30894;51.740;19.498;2023-04-24T17:58:25;14.30;56.30
45137;DHT22;30894;51.740;19.498;2023-04-24T18:01:09;14.20;56.70
45137;DHT22;30894;51.740;19.498;2023-04-24T18:03:59;14.10;57.00
45137;DHT22;30894;51.740;19.498;2023-04-24T18:07:00;14.10;57.40
45137;DHT22;30894;51.740;19.498;2023-04-24T18:09:50;13.90;57.60
45137;DHT22;30894;51.740;19.498;2023-04-24T18:12:59;13.90;57.80
45137;DHT22;30894;51.740;19.498;2023-04-24T18:19:04;13.70;58.20
45137;DHT22;30894;51.740;19.498;2023-04-24T18:25:08;13.60;58.50
45137;DHT22;30894;51.740;19.498;2023-04-24T18:28:01;13.50;59.30
45137;DHT22;30894;51.740;19.498;2023-04-24T18:31:08;13.40;58.70
45137;DHT22;30894;51.740;19.498;2023-04-24T18:34:22;13.30;59.30
45137;DHT22;30894;51.740;19.498;2023-04-24T18:37:36;13.20;58.90
45137;DHT22;30894;51.740;19.498;2023-04-24T18:40:31;13.10;59.10
45137;DHT22;30894;51.740;19.498;2023-04-24T18:46:47;13.00;59.40
45137;DHT22;30894;51.740;19.498;2023-04-24T18:49:35;12.90;59.40
45137;DHT22;30894;51.740;19.498;2023-04-24T18:56:16;12.90;59.30
45137;DHT22;30894;51.740;19.498;2023-04-24T18:59:25;12.90;59.30
45137;DHT22;30894;51.740;19.498;2023-04-24T19:02:22;12.80;59.20
45137;DHT22;30894;51.740;19.498;2023-04-24T19:05:17;12.90;59.20
45137;DHT22;30894;51.740;19.498;2023-04-24T19:11:00;12.80;59.20
45137;DHT22;30894;51.740;19.498;2023-04-24T19:14:10;12.70;59.30
45137;DHT22;30894;51.740;19.498;2023-04-24T19:24:53;12.80;59.10
45137;DHT22;30894;51.740;19.498;2023-04-24T19:27:57;12.80;59.10
45137;DHT22;30894;51.740;19.498;2023-04-24T19:31:38;12.70;59.00
45137;DHT22;30894;51.740;19.498;2023-04-24T19:34:29;12.80;59.00
45137;DHT22;30894;51.740;19.498;2023-04-24T19:37:33;12.80;58.90
45137;DHT22;30894;51.740;19.498;2023-04-24T19:40:17;12.80;58.90
45137;DHT22;30894;51.740;19.498;2023-04-24T19:43:43;12.80;59.00
45137;DHT22;30894;51.740;19.498;2023-04-24T20:05:53;11.80;60.50
45137;DHT22;30894;51.740;19.498;2023-04-24T20:22:18;11.30;61.00
45137;DHT22;30894;51.740;19.498;2023-04-24T20:35:29;11.20;61.40
45137;DHT22;30894;51.740;19.498;2023-04-24T20:39:03;11.20;61.60
45137;DHT22;30894;51.740;19.498;2023-04-24T20:41:57;11.20;61.70
45137;DHT22;30894;51.740;19.498;2023-04-24T20:44:59;11.10;61.70
45137;DHT22;30894;51.740;19.498;2023-04-24T20:50:46;11.10;61.80
45137;DHT22;30894;51.740;19.498;2023-04-24T20:53:46;11.10;61.80
45137;DHT22;30894;51.740;19.498;2023-04-24T21:07:25;11.00;62.10
45137;DHT22;30894;51.740;19.498;2023-04-24T21:10:33;10.90;62.30
45137;DHT22;30894;51.740;19.498;2023-04-24T21:13:39;10.90;62.20
45137;DHT22;30894;51.740;19.498;2023-04-24T21:16:45;10.90;62.40
45137;DHT22;30894;51.740;19.498;2023-04-24T21:23:12;10.80;62.70
45137;DHT22;30894;51.740;19.498;2023-04-24T21:37:39;10.70;62.90
45137;DHT22;30894;51.740;19.498;2023-04-24T21:40:42;10.70;63.00
45137;DHT22;30894;51.740;19.498;2023-04-24T21:43:51;10.70;63.00
45137;DHT22;30894;51.740;19.498;2023-04-24T21:46:59;10.60;63.20
45137;DHT22;30894;51.740;19.498;2023-04-24T21:49:50;10.60;63.20
45137;DHT22;30894;51.740;19.498;2023-04-24T21:59:01;10.50;63.40
45137;DHT22;30894;51.740;19.498;2023-04-24T22:02:07;10.50;63.50
45137;DHT22;30894;51.740;19.498;2023-04-24T22:05:02;10.40;63.50
45137;DHT22;30894;51.740;19.498;2023-04-24T22:07:57;10.50;63.60
45137;DHT22;30894;51.740;19.498;2023-04-24T22:11:10;10.50;63.70
45137;DHT22;30894;51.740;19.498;2023-04-24T22:14:25;10.40;63.80
45137;DHT22;30894;51.740;19.498;2023-04-24T22:17:39;10.40;63.80
45137;DHT22;30894;51.740;19.498;2023-04-24T22:20:52;10.40;63.90
45137;DHT22;30894;51.740;19.498;2023-04-24T22:24:18;10.40;64.00
45137;DHT22;30894;51.740;19.498;2023-04-24T22:27:29;10.40;64.00
45137;DHT22;30894;51.740;19.498;2023-04-24T22:30:36;10.40;64.00
45137;DHT22;30894;51.740;19.498;2023-04-24T22:33:33;10.40;64.20
45137;DHT22;30894;51.740;19.498;2023-04-24T22:36:35;10.40;64.20
45137;DHT22;30894;51.740;19.498;2023-04-24T22:39:47;10.30;64.30
45137;DHT22;30894;51.740;19.498;2023-04-24T22:42:56;10.30;64.30
45137;DHT22;30894;51.740;19.498;2023-04-24T22:54:18;10.30;64.30
45137;DHT22;30894;51.740;19.498;2023-04-24T22:57:21;10.30;64.40
45137;DHT22;30894;51.740;19.498;2023-04-24T23:00:31;10.30;64.40
45137;DHT22;30894;51.740;19.498;2023-04-24T23:30:35;10.30;64.80
45137;DHT22;30894;51.740;19.498;2023-04-24T23:33:34;10.30;64.90
45137;DHT22;30894;51.740;19.498;2023-04-24T23:36:46;10.40;65.10
45137;DHT22;30894;51.740;19.498;2023-04-24T23:39:54;10.30;65.20
45137;DHT22;30894;51.740;19.498;2023-04-24T23:43:14;10.30;65.30
45137;DHT22;30894;51.740;19.498;2023-04-24T23:46:11;10.10;65.50
45137;DHT22;30894;51.740;19.498;2023-04-24T23:49:07;10.20;65.70
45137;DHT22;30894;51.740;19.498;2023-04-24T23:55:18;10.10;66.00
45137;DHT22;30894;51.740;19.498;2023-04-24T23:58:28;10.00;66.00
